sensor_id;sensor_type;location;lat;lon;timestamp;pressure;altitude;pressure_sealevel;temperature;humidity
27358;BME280;14831;50.474;7.616;2023-02-04T00:01:58;99440;;;6.3;79.4
27358;BME280;14831;50.474;7.616;2023-02-04T00:06:58;99430;;;6.3;80.0
27358;BME280;14831;50.474;7.616;2023-02-04T00:11:58;99430;;;6.3;79.4
27358;BME280;14831;50.474;7.616;2023-02-04T00:16:58;99450;;;6.3;80.0
27358;BME280;14831;50.474;7.616;2023-02-04T00:21:58;99450;;;6.2;80.2
27358;BME280;14831;50.474;7.616;2023-02-04T00:26:58;99450;;;6.2;80.3
27358;BME280;14831;50.474;7.616;2023-02-04T00:31:58;99460;;;6.2;79.9
27358;BME280;14831;50.474;7.616;2023-02-04T00:36:58;99470;;;6.2;80.3
27358;BME280;14831;50.474;7.616;2023-02-04T00:41:58;99470;;;6.1;79.9
27358;BME280;14831;50.474;7.616;2023-02-04T00:46:58;99470;;;6.1;80.2
27358;BME280;14831;50.474;7.616;2023-02-04T00:51:58;99470;;;6.1;80.5
27358;BME280;14831;50.474;7.616;2023-02-04T00:56:58;99470;;;6.1;80.3
27358;BME280;14831;50.474;7.616;2023-02-04T01:01:58;99470;;;6.0;80.3
27358;BME280;14831;50.474;7.616;2023-02-04T01:06:58;99480;;;6.0;81.1
27358;BME280;14831;50.474;7.616;2023-02-04T01:11:58;99500;;;6.0;79.7
27358;BME280;14831;50.474;7.616;2023-02-04T01:16:58;99500;;;6.0;79.0
27358;BME280;14831;50.474;7.616;2023-02-04T01:21:58;99500;;;5.9;80.0
27358;BME280;14831;50.474;7.616;2023-02-04T01:26:58;99520;;;5.9;78.6
27358;BME280;14831;50.474;7.616;2023-02-04T01:31:58;99510;;;5.9;79.4
27358;BME280;14831;50.474;7.616;2023-02-04T01:36:58;99530;;;5.9;77.8
27358;BME280;14831;50.474;7.616;2023-02-04T01:41:58;99530;;;5.8;79.5
27358;BME280;14831;50.474;7.616;2023-02-04T01:46:58;99530;;;5.8;79.7
27358;BME280;14831;50.474;7.616;2023-02-04T01:51:58;99520;;;5.8;79.5
27358;BME280;14831;50.474;7.616;2023-02-04T01:56:58;99530;;;5.8;79.6
27358;BME280;14831;50.474;7.616;2023-02-04T02:01:58;99540;;;5.7;79.1
27358;BME280;14831;50.474;7.616;2023-02-04T02:06:59;99530;;;5.7;80.0
27358;BME280;14831;50.474;7.616;2023-02-04T02:11:59;99530;;;5.6;79.8
27358;BME280;14831;50.474;7.616;2023-02-04T02:16:58;99520;;;5.7;79.5
27358;BME280;14831;50.474;7.616;2023-02-04T02:21:59;99530;;;5.6;80.9
27358;BME280;14831;50.474;7.616;2023-02-04T02:26:59;99530;;;5.6;80.8
27358;BME280;14831;50.474;7.616;2023-02-04T02:31:58;99550;;;5.5;80.7
27358;BME280;14831;50.474;7.616;2023-02-04T02:36:58;99570;;;5.5;81.3
27358;BME280;14831;50.474;7.616;2023-02-04T02:41:58;99550;;;5.5;81.0
27358;BME280;14831;50.474;7.616;2023-02-04T02:46:58;99550;;;5.4;81.6
27358;BME280;14831;50.474;7.616;2023-02-04T02:51:58;99570;;;5.4;81.8
27358;BME280;14831;50.474;7.616;2023-02-04T02:56:58;99550;;;5.4;81.5
27358;BME280;14831;50.474;7.616;2023-02-04T03:01:59;99580;;;5.4;81.7
27358;BME280;14831;50.474;7.616;2023-02-04T03:06:58;99590;;;5.4;81.9
27358;BME280;14831;50.474;7.616;2023-02-04T03:11:58;99580;;;5.4;81.8
27358;BME280;14831;50.474;7.616;2023-02-04T03:16:58;99580;;;5.4;81.8
27358;BME280;14831;50.474;7.616;2023-02-04T03:21:58;99570;;;5.3;82.4
27358;BME280;14831;50.474;7.616;2023-02-04T03:26:58;99590;;;5.2;82.7
27358;BME280;14831;50.474;7.616;2023-02-04T03:31:58;99600;;;5.2;83.1
27358;BME280;14831;50.474;7.616;2023-02-04T03:36:58;99600;;;5.2;83.2
27358;BME280;14831;50.474;7.616;2023-02-04T03:41:58;99600;;;5.2;82.8
27358;BME280;14831;50.474;7.616;2023-02-04T03:46:58;99610;;;5.2;83.8
27358;BME280;14831;50.474;7.616;2023-02-04T03:51:58;99600;;;5.1;83.7
27358;BME280;14831;50.474;7.616;2023-02-04T03:56:58;99600;;;5.1;84.5
27358;BME280;14831;50.474;7.616;2023-02-04T04:01:58;99610;;;5.1;84.4
27358;BME280;14831;50.474;7.616;2023-02-04T04:06:59;99620;;;5.0;84.8
27358;BME280;14831;50.474;7.616;2023-02-04T04:11:58;99620;;;5.0;85.7
27358;BME280;14831;50.474;7.616;2023-02-04T04:16:58;99620;;;4.9;85.8
27358;BME280;14831;50.474;7.616;2023-02-04T04:21:58;99620;;;4.9;85.8
27358;BME280;14831;50.474;7.616;2023-02-04T04:26:58;99610;;;4.9;86.4
27358;BME280;14831;50.474;7.616;2023-02-04T04:31:58;99610;;;4.8;86.6
27358;BME280;14831;50.474;7.616;2023-02-04T04:36:58;99620;;;4.8;86.4
27358;BME280;14831;50.474;7.616;2023-02-04T04:41:58;99630;;;4.9;86.4
27358;BME280;14831;50.474;7.616;2023-02-04T04:46:58;99620;;;4.9;86.2
27358;BME280;14831;50.474;7.616;2023-02-04T04:51:58;99630;;;4.9;86.6
27358;BME280;14831;50.474;7.616;2023-02-04T04:56:58;99630;;;4.9;86.7
27358;BME280;14831;50.474;7.616;2023-02-04T05:01:58;99640;;;4.8;86.5
27358;BME280;14831;50.474;7.616;2023-02-04T05:06:58;99630;;;4.9;86.5
27358;BME280;14831;50.474;7.616;2023-02-04T05:11:58;99640;;;4.9;86.6
27358;BME280;14831;50.474;7.616;2023-02-04T05:16:58;99650;;;4.8;87.3
27358;BME280;14831;50.474;7.616;2023-02-04T05:21:58;99650;;;4.8;87.7
27358;BME280;14831;50.474;7.616;2023-02-04T05:26:58;99660;;;4.8;88.2
27358;BME280;14831;50.474;7.616;2023-02-04T05:31:58;99650;;;4.8;88.7
27358;BME280;14831;50.474;7.616;2023-02-04T05:36:58;99660;;;4.8;88.7
27358;BME280;14831;50.474;7.616;2023-02-04T05:41:58;99660;;;4.8;88.7
27358;BME280;14831;50.474;7.616;2023-02-04T05:46:58;99660;;;4.9;88.4
27358;BME280;14831;50.474;7.616;2023-02-04T05:51:58;99660;;;4.9;88.3
27358;BME280;14831;50.474;7.616;2023-02-04T05:56:58;99670;;;4.8;88.2
27358;BME280;14831;50.474;7.616;2023-02-04T06:01:58;99670;;;4.8;87.8
27358;BME280;14831;50.474;7.616;2023-02-04T06:06:58;99670;;;4.8;87.7
27358;BME280;14831;50.474;7.616;2023-02-04T06:11:58;99680;;;4.8;87.9
27358;BME280;14831;50.474;7.616;2023-02-04T06:16:59;99690;;;4.8;87.5
27358;BME280;14831;50.474;7.616;2023-02-04T06:21:58;99710;;;4.8;87.6
27358;BME280;14831;50.474;7.616;2023-02-04T06:26:58;99700;;;4.8;87.8
27358;BME280;14831;50.474;7.616;2023-02-04T06:31:58;99710;;;4.8;87.8
27358;BME280;14831;50.474;7.616;2023-02-04T06:36:58;99720;;;4.7;88.0
27358;BME280;14831;50.474;7.616;2023-02-04T06:41:58;99730;;;4.7;88.1
27358;BME280;14831;50.474;7.616;2023-02-04T06:46:58;99730;;;4.7;88.2
27358;BME280;14831;50.474;7.616;2023-02-04T06:51:58;99740;;;4.7;88.0
27358;BME280;14831;50.474;7.616;2023-02-04T06:56:58;99750;;;4.7;88.4
27358;BME280;14831;50.474;7.616;2023-02-04T07:01:58;99750;;;4.7;88.3
27358;BME280;14831;50.474;7.616;2023-02-04T07:06:58;99770;;;4.7;88.6
27358;BME280;14831;50.474;7.616;2023-02-04T07:11:58;99750;;;4.7;88.7
27358;BME280;14831;50.474;7.616;2023-02-04T07:16:58;99760;;;4.7;88.8
27358;BME280;14831;50.474;7.616;2023-02-04T07:21:58;99760;;;4.7;88.6
27358;BME280;14831;50.474;7.616;2023-02-04T07:26:58;99770;;;4.7;88.9
27358;BME280;14831;50.474;7.616;2023-02-04T07:31:58;99780;;;4.7;89.2
27358;BME280;14831;50.474;7.616;2023-02-04T07:36:58;99790;;;4.7;89.5
27358;BME280;14831;50.474;7.616;2023-02-04T07:41:58;99780;;;4.7;89.6
27358;BME280;14831;50.474;7.616;2023-02-04T07:46:58;99790;;;4.7;89.6
27358;BME280;14831;50.474;7.616;2023-02-04T07:51:58;99790;;;4.7;89.5
27358;BME280;14831;50.474;7.616;2023-02-04T07:56:58;99790;;;4.8;89.2
27358;BME280;14831;50.474;7.616;2023-02-04T08:01:58;99790;;;4.8;89.3
27358;BME280;14831;50.474;7.616;2023-02-04T08:06:58;99810;;;4.8;89.3
27358;BME280;14831;50.474;7.616;2023-02-04T08:11:58;99800;;;4.8;89.4
27358;BME280;14831;50.474;7.616;2023-02-04T08:16:58;99820;;;4.9;89.2
27358;BME280;14831;50.474;7.616;2023-02-04T08:21:58;99820;;;4.9;89.2
27358;BME280;14831;50.474;7.616;2023-02-04T08:26:58;99840;;;5.0;89.0
27358;BME280;14831;50.474;7.616;2023-02-04T08:31:58;99840;;;5.1;89.2
27358;BME280;14831;50.474;7.616;2023-02-04T08:36:58;99850;;;5.1;89.1
27358;BME280;14831;50.474;7.616;2023-02-04T08:41:58;99840;;;5.2;89.1
27358;BME280;14831;50.474;7.616;2023-02-04T08:46:58;99840;;;5.2;88.8
27358;BME280;14831;50.474;7.616;2023-02-04T08:51:58;99850;;;5.3;88.4
27358;BME280;14831;50.474;7.616;2023-02-04T08:56:58;99870;;;5.3;88.0
27358;BME280;14831;50.474;7.616;2023-02-04T09:01:58;99860;;;5.3;88.0
27358;BME280;14831;50.474;7.616;2023-02-04T09:06:58;99870;;;5.4;88.1
27358;BME280;14831;50.474;7.616;2023-02-04T09:11:58;99870;;;5.4;86.9
27358;BME280;14831;50.474;7.616;2023-02-04T09:16:58;99880;;;5.4;86.2
27358;BME280;14831;50.474;7.616;2023-02-04T09:21:58;99880;;;5.5;86.5
27358;BME280;14831;50.474;7.616;2023-02-04T09:26:58;99880;;;5.6;85.7
27358;BME280;14831;50.474;7.616;2023-02-04T09:31:58;99890;;;5.6;85.6
27358;BME280;14831;50.474;7.616;2023-02-04T09:36:58;99910;;;5.6;85.9
27358;BME280;14831;50.474;7.616;2023-02-04T09:41:58;99920;;;5.6;85.7
27358;BME280;14831;50.474;7.616;2023-02-04T09:46:59;99920;;;5.6;84.8
27358;BME280;14831;50.474;7.616;2023-02-04T09:51:58;99920;;;5.8;84.1
27358;BME280;14831;50.474;7.616;2023-02-04T09:56:58;99930;;;5.9;82.8
27358;BME280;14831;50.474;7.616;2023-02-04T10:01:59;99930;;;5.9;81.8
27358;BME280;14831;50.474;7.616;2023-02-04T10:06:58;99940;;;5.9;82.1
27358;BME280;14831;50.474;7.616;2023-02-04T10:11:58;99950;;;6.1;82.3
27358;BME280;14831;50.474;7.616;2023-02-04T10:16:58;99950;;;6.1;81.4
27358;BME280;14831;50.474;7.616;2023-02-04T10:21:58;99950;;;6.2;80.0
27358;BME280;14831;50.474;7.616;2023-02-04T10:27:06;99950;;;6.5;79.4
27358;BME280;14831;50.474;7.616;2023-02-04T10:31:58;99950;;;6.5;79.1
27358;BME280;14831;50.474;7.616;2023-02-04T10:36:58;99940;;;6.6;79.6
27358;BME280;14831;50.474;7.616;2023-02-04T10:41:59;99950;;;6.7;77.9
27358;BME280;14831;50.474;7.616;2023-02-04T10:46:58;99950;;;6.8;79.4
27358;BME280;14831;50.474;7.616;2023-02-04T10:51:59;99960;;;6.6;76.1
27358;BME280;14831;50.474;7.616;2023-02-04T10:56:59;99950;;;6.5;77.5
27358;BME280;14831;50.474;7.616;2023-02-04T11:01:59;99950;;;6.6;78.0
27358;BME280;14831;50.474;7.616;2023-02-04T11:06:58;99960;;;6.5;76.2
27358;BME280;14831;50.474;7.616;2023-02-04T11:11:58;99960;;;6.4;76.1
27358;BME280;14831;50.474;7.616;2023-02-04T11:17:00;99960;;;6.7;77.3
27358;BME280;14831;50.474;7.616;2023-02-04T11:22:07;99970;;;6.8;76.4
27358;BME280;14831;50.474;7.616;2023-02-04T11:27:04;99970;;;6.8;74.9
27358;BME280;14831;50.474;7.616;2023-02-04T11:32:00;99970;;;6.7;74.6
27358;BME280;14831;50.474;7.616;2023-02-04T11:37:12;99970;;;6.8;76.2
27358;BME280;14831;50.474;7.616;2023-02-04T11:41:58;99980;;;6.7;75.7
27358;BME280;14831;50.474;7.616;2023-02-04T11:46:58;99980;;;6.6;75.9
27358;BME280;14831;50.474;7.616;2023-02-04T11:52:02;99970;;;6.7;77.2
27358;BME280;14831;50.474;7.616;2023-02-04T11:56:58;99980;;;6.4;75.5
27358;BME280;14831;50.474;7.616;2023-02-04T12:02:04;99940;;;6.5;75.6
27358;BME280;14831;50.474;7.616;2023-02-04T12:06:59;99940;;;6.9;72.2
27358;BME280;14831;50.474;7.616;2023-02-04T12:11:59;99950;;;7.4;72.0
27358;BME280;14831;50.474;7.616;2023-02-04T12:16:58;99960;;;7.3;69.4
27358;BME280;14831;50.474;7.616;2023-02-04T12:21:58;99970;;;7.5;70.3
27358;BME280;14831;50.474;7.616;2023-02-04T12:26:58;99970;;;7.5;70.0
27358;BME280;14831;50.474;7.616;2023-02-04T12:31:58;99980;;;7.5;70.6
27358;BME280;14831;50.474;7.616;2023-02-04T12:36:58;99980;;;7.5;69.5
27358;BME280;14831;50.474;7.616;2023-02-04T12:41:58;99980;;;7.4;68.2
27358;BME280;14831;50.474;7.616;2023-02-04T12:46:58;99980;;;7.4;68.5
27358;BME280;14831;50.474;7.616;2023-02-04T12:51:58;99990;;;7.3;67.5
27358;BME280;14831;50.474;7.616;2023-02-04T12:56:58;100020;;;7.3;67.7
27358;BME280;14831;50.474;7.616;2023-02-04T13:01:58;100030;;;7.4;68.5
27358;BME280;14831;50.474;7.616;2023-02-04T13:06:58;100030;;;7.3;69.0
27358;BME280;14831;50.474;7.616;2023-02-04T13:11:58;100030;;;7.2;67.8
27358;BME280;14831;50.474;7.616;2023-02-04T13:16:58;100000;;;7.3;66.7
27358;BME280;14831;50.474;7.616;2023-02-04T13:21:58;99980;;;7.4;66.6
27358;BME280;14831;50.474;7.616;2023-02-04T13:26:58;100000;;;7.5;67.8
27358;BME280;14831;50.474;7.616;2023-02-04T13:31:58;100020;;;7.7;65.7
27358;BME280;14831;50.474;7.616;2023-02-04T13:36:58;100000;;;7.5;67.3
27358;BME280;14831;50.474;7.616;2023-02-04T13:41:58;100000;;;7.4;70.1
27358;BME280;14831;50.474;7.616;2023-02-04T13:46:58;100010;;;7.3;69.6
27358;BME280;14831;50.474;7.616;2023-02-04T13:51:58;100020;;;7.3;69.5
27358;BME280;14831;50.474;7.616;2023-02-04T13:56:58;100020;;;7.4;67.1
27358;BME280;14831;50.474;7.616;2023-02-04T14:01:58;100020;;;7.4;65.9
27358;BME280;14831;50.474;7.616;2023-02-04T14:06:58;100020;;;7.2;65.2
27358;BME280;14831;50.474;7.616;2023-02-04T14:11:58;100020;;;7.3;67.2
27358;BME280;14831;50.474;7.616;2023-02-04T14:16:58;100020;;;7.4;69.1
27358;BME280;14831;50.474;7.616;2023-02-04T14:21:58;100000;;;7.3;67.0
27358;BME280;14831;50.474;7.616;2023-02-04T14:26:58;100000;;;7.4;68.9
27358;BME280;14831;50.474;7.616;2023-02-04T14:31:58;100010;;;7.5;69.4
27358;BME280;14831;50.474;7.616;2023-02-04T14:36:58;100000;;;7.5;68.5
27358;BME280;14831;50.474;7.616;2023-02-04T14:41:58;100010;;;7.4;68.4
27358;BME280;14831;50.474;7.616;2023-02-04T14:46:58;100010;;;7.3;69.0
27358;BME280;14831;50.474;7.616;2023-02-04T14:51:58;100000;;;7.2;69.8
27358;BME280;14831;50.474;7.616;2023-02-04T14:56:58;100000;;;7.2;69.8
27358;BME280;14831;50.474;7.616;2023-02-04T15:01:58;100000;;;7.1;69.4
27358;BME280;14831;50.474;7.616;2023-02-04T15:06:58;100010;;;7.1;70.9
27358;BME280;14831;50.474;7.616;2023-02-04T15:11:58;100020;;;7.1;71.1
27358;BME280;14831;50.474;7.616;2023-02-04T15:16:58;100020;;;7.0;71.0
27358;BME280;14831;50.474;7.616;2023-02-04T15:21:58;100010;;;7.0;70.8
27358;BME280;14831;50.474;7.616;2023-02-04T15:26:58;100020;;;6.9;70.5
27358;BME280;14831;50.474;7.616;2023-02-04T15:31:58;100020;;;6.9;72.0
27358;BME280;14831;50.474;7.616;2023-02-04T15:36:58;100010;;;6.9;71.2
27358;BME280;14831;50.474;7.616;2023-02-04T15:41:58;100020;;;6.8;72.3
27358;BME280;14831;50.474;7.616;2023-02-04T15:46:58;100030;;;6.7;73.0
27358;BME280;14831;50.474;7.616;2023-02-04T15:51:58;100030;;;6.6;73.7
27358;BME280;14831;50.474;7.616;2023-02-04T15:56:58;100030;;;6.6;74.0
27358;BME280;14831;50.474;7.616;2023-02-04T16:01:58;100020;;;6.6;74.2
27358;BME280;14831;50.474;7.616;2023-02-04T16:06:58;100030;;;6.5;74.7
27358;BME280;14831;50.474;7.616;2023-02-04T16:11:58;100020;;;6.5;75.2
27358;BME280;14831;50.474;7.616;2023-02-04T16:16:58;100030;;;6.4;75.0
27358;BME280;14831;50.474;7.616;2023-02-04T16:21:58;100050;;;6.3;75.7
27358;BME280;14831;50.474;7.616;2023-02-04T16:26:58;100030;;;6.3;76.2
27358;BME280;14831;50.474;7.616;2023-02-04T16:31:58;100040;;;6.2;76.8
27358;BME280;14831;50.474;7.616;2023-02-04T16:36:58;100030;;;6.1;76.6
27358;BME280;14831;50.474;7.616;2023-02-04T16:41:58;100030;;;6.0;77.2
27358;BME280;14831;50.474;7.616;2023-02-04T16:46:58;100030;;;5.9;77.8
27358;BME280;14831;50.474;7.616;2023-02-04T16:51:58;100040;;;5.8;78.3
27358;BME280;14831;50.474;7.616;2023-02-04T16:56:58;100040;;;5.6;78.1
27358;BME280;14831;50.474;7.616;2023-02-04T17:01:58;100040;;;5.5;78.9
27358;BME280;14831;50.474;7.616;2023-02-04T17:06:58;100040;;;5.4;78.9
27358;BME280;14831;50.474;7.616;2023-02-04T17:11:58;100040;;;5.3;80.4
27358;BME280;14831;50.474;7.616;2023-02-04T17:16:58;100050;;;5.1;80.7
27358;BME280;14831;50.474;7.616;2023-02-04T17:21:58;100060;;;5.1;81.0
27358;BME280;14831;50.474;7.616;2023-02-04T17:26:58;100060;;;5.1;81.0
27358;BME280;14831;50.474;7.616;2023-02-04T17:31:58;100080;;;4.9;81.5
27358;BME280;14831;50.474;7.616;2023-02-04T17:36:58;100080;;;5.0;81.4
27358;BME280;14831;50.474;7.616;2023-02-04T17:41:58;100060;;;5.0;81.3
27358;BME280;14831;50.474;7.616;2023-02-04T17:46:58;100050;;;5.1;80.7
27358;BME280;14831;50.474;7.616;2023-02-04T17:51:58;100060;;;5.0;80.6
27358;BME280;14831;50.474;7.616;2023-02-04T17:57:00;100060;;;4.8;82.0
27358;BME280;14831;50.474;7.616;2023-02-04T18:01:58;100060;;;4.5;81.4
27358;BME280;14831;50.474;7.616;2023-02-04T18:06:58;100070;;;4.4;83.8
27358;BME280;14831;50.474;7.616;2023-02-04T18:11:59;100050;;;4.2;82.4
27358;BME280;14831;50.474;7.616;2023-02-04T18:16:58;100050;;;4.1;83.6
27358;BME280;14831;50.474;7.616;2023-02-04T18:21:58;100060;;;4.4;84.0
27358;BME280;14831;50.474;7.616;2023-02-04T18:26:59;100070;;;4.5;83.6
27358;BME280;14831;50.474;7.616;2023-02-04T18:31:59;100060;;;4.5;83.4
27358;BME280;14831;50.474;7.616;2023-02-04T18:36:59;100060;;;4.4;83.3
27358;BME280;14831;50.474;7.616;2023-02-04T18:41:58;100060;;;4.3;83.4
27358;BME280;14831;50.474;7.616;2023-02-04T18:46:58;100060;;;4.3;83.4
27358;BME280;14831;50.474;7.616;2023-02-04T18:51:58;100060;;;4.3;83.1
27358;BME280;14831;50.474;7.616;2023-02-04T18:57:13;100070;;;4.1;84.0
27358;BME280;14831;50.474;7.616;2023-02-04T19:01:58;100060;;;4.0;84.5
27358;BME280;14831;50.474;7.616;2023-02-04T19:06:58;100050;;;3.9;85.0
27358;BME280;14831;50.474;7.616;2023-02-04T19:11:59;100060;;;4.0;85.5
27358;BME280;14831;50.474;7.616;2023-02-04T19:17:01;100060;;;3.9;85.1
27358;BME280;14831;50.474;7.616;2023-02-04T19:21:58;100050;;;3.4;84.9
27358;BME280;14831;50.474;7.616;2023-02-04T19:26:59;100030;;;3.3;86.8
27358;BME280;14831;50.474;7.616;2023-02-04T19:31:59;100040;;;3.3;86.2
27358;BME280;14831;50.474;7.616;2023-02-04T19:36:58;100050;;;3.1;87.0
27358;BME280;14831;50.474;7.616;2023-02-04T19:41:58;100050;;;2.9;87.8
27358;BME280;14831;50.474;7.616;2023-02-04T19:47:02;100060;;;3.0;87.1
27358;BME280;14831;50.474;7.616;2023-02-04T19:51:58;100060;;;2.8;87.0
27358;BME280;14831;50.474;7.616;2023-02-04T19:56:58;100080;;;2.5;86.8
27358;BME280;14831;50.474;7.616;2023-02-04T20:01:59;100070;;;2.4;88.4
27358;BME280;14831;50.474;7.616;2023-02-04T20:06:58;100070;;;2.6;90.8
27358;BME280;14831;50.474;7.616;2023-02-04T20:11:59;100060;;;3.2;90.1
27358;BME280;14831;50.474;7.616;2023-02-04T20:16:59;100070;;;3.2;88.3
27358;BME280;14831;50.474;7.616;2023-02-04T20:22:03;100070;;;2.8;89.0
27358;BME280;14831;50.474;7.616;2023-02-04T20:26:58;100070;;;2.5;89.9
27358;BME280;14831;50.474;7.616;2023-02-04T20:31:58;100070;;;2.5;91.4
27358;BME280;14831;50.474;7.616;2023-02-04T20:36:58;100070;;;2.7;91.7
27358;BME280;14831;50.474;7.616;2023-02-04T20:47:01;100070;;;2.7;91.6
27358;BME280;14831;50.474;7.616;2023-02-04T20:51:58;100080;;;2.9;91.3
27358;BME280;14831;50.474;7.616;2023-02-04T20:56:58;100070;;;2.8;90.8
27358;BME280;14831;50.474;7.616;2023-02-04T21:01:58;100080;;;2.7;90.8
27358;BME280;14831;50.474;7.616;2023-02-04T21:06:59;100080;;;2.6;91.0
27358;BME280;14831;50.474;7.616;2023-02-04T21:11:59;100080;;;2.5;91.5
27358;BME280;14831;50.474;7.616;2023-02-04T21:16:58;100080;;;2.4;91.4
27358;BME280;14831;50.474;7.616;2023-02-04T21:21:58;100080;;;2.4;91.3
27358;BME280;14831;50.474;7.616;2023-02-04T21:26:58;100070;;;2.3;91.5
27358;BME280;14831;50.474;7.616;2023-02-04T21:31:58;100070;;;2.4;92.0
27358;BME280;14831;50.474;7.616;2023-02-04T21:36:58;100060;;;2.6;92.2
27358;BME280;14831;50.474;7.616;2023-02-04T21:41:58;100060;;;2.7;91.6
27358;BME280;14831;50.474;7.616;2023-02-04T21:46:58;100060;;;2.9;90.3
27358;BME280;14831;50.474;7.616;2023-02-04T21:51:58;100070;;;3.0;88.6
27358;BME280;14831;50.474;7.616;2023-02-04T21:56:58;100070;;;2.9;88.1
27358;BME280;14831;50.474;7.616;2023-02-04T22:01:58;100080;;;2.9;88.6
27358;BME280;14831;50.474;7.616;2023-02-04T22:06:58;100070;;;2.8;88.8
27358;BME280;14831;50.474;7.616;2023-02-04T22:11:58;100060;;;2.8;88.7
27358;BME280;14831;50.474;7.616;2023-02-04T22:16:58;100060;;;2.9;88.7
27358;BME280;14831;50.474;7.616;2023-02-04T22:21:58;100070;;;2.9;88.9
27358;BME280;14831;50.474;7.616;2023-02-04T22:26:58;100070;;;2.9;88.9
27358;BME280;14831;50.474;7.616;2023-02-04T22:31:58;100070;;;2.9;89.2
27358;BME280;14831;50.474;7.616;2023-02-04T22:36:58;100070;;;2.9;89.2
27358;BME280;14831;50.474;7.616;2023-02-04T22:41:58;100060;;;2.9;89.3
27358;BME280;14831;50.474;7.616;2023-02-04T22:46:58;100060;;;2.9;89.4
27358;BME280;14831;50.474;7.616;2023-02-04T22:51:58;100050;;;2.8;89.9
27358;BME280;14831;50.474;7.616;2023-02-04T22:56:58;100070;;;2.7;90.4
27358;BME280;14831;50.474;7.616;2023-02-04T23:01:58;100070;;;2.6;90.6
27358;BME280;14831;50.474;7.616;2023-02-04T23:06:58;100080;;;2.4;90.6
27358;BME280;14831;50.474;7.616;2023-02-04T23:11:58;100070;;;2.4;91.4
27358;BME280;14831;50.474;7.616;2023-02-04T23:16:58;100060;;;2.4;91.4
27358;BME280;14831;50.474;7.616;2023-02-04T23:21:58;100060;;;2.5;91.6
27358;BME280;14831;50.474;7.616;2023-02-04T23:26:58;100080;;;2.5;91.7
27358;BME280;14831;50.474;7.616;2023-02-04T23:31:58;100060;;;2.6;91.8
27358;BME280;14831;50.474;7.616;2023-02-04T23:36:59;100050;;;2.7;91.7
27358;BME280;14831;50.474;7.616;2023-02-04T23:41:58;100050;;;2.8;92.1
27358;BME280;14831;50.474;7.616;2023-02-04T23:46:58;100050;;;2.7;92.3
27358;BME280;14831;50.474;7.616;2023-02-04T23:51:58;100060;;;2.6;92.3
27358;BME280;14831;50.474;7.616;2023-02-04T23:56:58;100080;;;2.6;92.6
